Time;durP1;ratioP1;P1;durP2;ratioP2;P2;SDS_P1;SDS_P2;PMS_P1;PMS_P2;Temp;Humidity;BMP_temperature;BMP_pressure;BME280_temperature;BME280_humidity;BME280_pressure;Samples;Min_cycle;Max_cycle;Signal;HPM_P1;HPM_P2
2022/04/14 00:00:56;;;;;;;9.83;3.10;;;;;;;1.36;71.21;102256.22;5133847;28;20043;-64
2022/04/14 00:03:21;;;;;;;4.57;3.40;;;;;;;1.31;71.11;102252.94;5134980;27;20031;-64
2022/04/14 00:05:47;;;;;;;4.83;3.33;;;;;;;1.26;70.95;102260.19;5136996;27;20389;-64
2022/04/14 00:08:20;;;;;;;9.60;3.33;;;;;;;1.30;71.68;102267.00;5137082;27;20083;-63
2022/04/14 00:10:46;;;;;;;7.20;3.50;;;;;;;1.30;71.59;102256.50;5137426;27;20094;-64
2022/04/14 00:13:11;;;;;;;5.17;3.40;;;;;;;1.16;71.28;102243.13;5136420;27;20306;-65
2022/04/14 00:15:37;;;;;;;9.77;5.63;;;;;;;1.24;71.54;102256.78;5136225;27;20494;-65
2022/04/14 00:18:03;;;;;;;11.33;4.00;;;;;;;1.24;72.14;102259.41;5136473;27;20043;-65
2022/04/14 00:20:28;;;;;;;4.23;3.07;;;;;;;1.23;72.16;102249.81;5136544;27;20031;-66
2022/04/14 00:22:55;;;;;;;12.67;3.43;;;;;;;1.22;71.79;102256.84;5136206;27;20054;-64
2022/04/14 00:25:20;;;;;;;9.77;3.60;;;;;;;1.21;71.88;102256.91;5136588;27;20293;-64
2022/04/14 00:27:45;;;;;;;12.03;3.87;;;;;;;1.25;71.49;102258.47;5136480;27;20060;-68
2022/04/14 00:30:12;;;;;;;5.23;3.23;;;;;;;1.24;71.98;102251.53;5136382;27;20515;-63
2022/04/14 00:32:38;;;;;;;12.27;4.07;;;;;;;1.11;71.70;102229.34;5136238;27;20039;-64
2022/04/14 00:35:04;;;;;;;11.93;5.23;;;;;;;1.31;71.88;102273.94;5136009;27;20848;-63
2022/04/14 00:37:29;;;;;;;14.17;3.90;;;;;;;1.12;71.51;102228.41;5135600;27;20556;-67
2022/04/14 00:39:55;;;;;;;11.70;3.37;;;;;;;1.24;71.58;102246.28;5136238;27;20035;-64
2022/04/14 00:42:21;;;;;;;8.50;3.37;;;;;;;1.34;71.30;102255.44;5136200;27;20117;-64
2022/04/14 00:44:46;;;;;;;3.70;2.77;;;;;;;1.33;71.00;102251.09;5136103;27;20083;-64
2022/04/14 00:47:12;;;;;;;5.93;2.80;;;;;;;1.32;70.91;102243.31;5135922;27;20075;-66
2022/04/14 00:49:38;;;;;;;6.70;3.10;;;;;;;1.43;70.15;102262.91;5135782;27;20031;-65
2022/04/14 00:52:05;;;;;;;10.23;3.00;;;;;;;1.47;70.65;102261.03;5135623;27;20264;-64
2022/04/14 00:54:31;;;;;;;5.63;3.30;;;;;;;1.49;70.61;102252.16;5135367;27;20296;-64
2022/04/14 00:57:02;;;;;;;4.83;2.60;;;;;;;1.58;70.31;102256.13;5135778;27;20265;-63
2022/04/14 00:59:29;;;;;;;6.00;2.87;;;;;;;1.65;69.62;102262.81;5135956;27;20038;-65
2022/04/14 01:01:56;;;;;;;3.90;2.53;;;;;;;1.70;69.68;102257.34;5135877;27;20268;-62
2022/04/14 01:04:21;;;;;;;3.97;2.40;;;;;;;1.76;69.02;102259.72;5135829;27;20830;-65
2022/04/14 01:06:47;;;;;;;3.77;2.40;;;;;;;1.78;69.16;102257.88;5135431;27;20261;-66
2022/04/14 01:09:18;;;;;;;3.03;2.50;;;;;;;1.77;68.96;102245.66;5135696;27;20042;-64
2022/04/14 01:11:49;;;;;;;6.77;2.70;;;;;;;1.85;68.82;102254.03;5135747;27;20035;-63
2022/04/14 01:14:26;;;;;;;6.87;3.00;;;;;;;1.83;68.50;102234.88;5134874;27;20281;-65
2022/04/14 01:16:53;;;;;;;4.77;2.87;;;;;;;1.82;68.32;102230.53;5135410;27;20273;-63
2022/04/14 01:19:19;;;;;;;5.47;2.60;;;;;;;1.80;68.88;102229.75;5135142;27;20304;-64
2022/04/14 01:21:48;;;;;;;9.57;2.53;;;;;;;1.90;68.13;102238.91;5135191;27;20341;-64
2022/04/14 01:24:14;;;;;;;6.43;2.87;;;;;;;1.95;68.17;102244.81;5135431;27;20100;-64
2022/04/14 01:26:40;;;;;;;7.00;2.60;;;;;;;1.98;67.70;102249.91;5135295;27;20261;-64
2022/04/14 01:29:06;;;;;;;5.23;2.60;;;;;;;2.05;67.97;102247.88;5135314;27;20039;-64
2022/04/14 01:31:31;;;;;;;6.50;2.80;;;;;;;2.05;67.91;102256.63;5135009;27;20110;-64
2022/04/14 01:33:57;;;;;;;4.67;3.10;;;;;;;1.92;67.73;102229.19;5135199;27;20035;-63
2022/04/14 01:36:22;;;;;;;3.47;2.70;;;;;;;2.03;67.74;102247.09;5136213;27;20043;-63
2022/04/14 01:38:48;;;;;;;5.93;2.90;;;;;;;1.99;67.76;102245.50;5136222;27;20035;-63
2022/04/14 01:41:13;;;;;;;5.17;3.40;;;;;;;2.00;67.58;102244.59;5136000;27;20054;-63
2022/04/14 01:43:39;;;;;;;4.73;2.83;;;;;;;1.98;67.58;102247.28;5135547;27;20031;-64
2022/04/14 01:46:08;;;;;;;7.80;2.60;;;;;;;1.99;68.00;102242.88;5135768;27;20062;-63
2022/04/14 01:48:34;;;;;;;5.00;2.70;;;;;;;1.81;67.97;102210.44;5134688;27;20097;-64
2022/04/14 01:51:00;;;;;;;4.37;2.80;;;;;;;1.83;67.90;102203.34;5134897;27;20608;-63
2022/04/14 01:53:26;;;;;;;3.53;2.63;;;;;;;2.00;68.14;102239.31;5134685;27;20268;-65
2022/04/14 01:55:51;;;;;;;5.00;2.50;;;;;;;1.97;67.61;102223.72;5134683;27;20073;-63
2022/04/14 01:58:17;;;;;;;2.77;2.37;;;;;;;1.98;67.55;102223.63;5134879;27;20031;-63
2022/04/14 02:00:43;;;;;;;3.73;2.50;;;;;;;2.09;67.83;102237.16;5134548;27;20475;-64
2022/04/14 02:03:08;;;;;;;7.10;2.53;;;;;;;2.13;67.38;102235.22;5134366;27;20085;-65
2022/04/14 02:05:34;;;;;;;4.50;2.43;;;;;;;2.14;67.50;102235.16;5134264;27;20077;-62
2022/04/14 02:07:59;;;;;;;3.40;2.40;;;;;;;2.16;67.14;102227.19;5134534;27;20080;-64
2022/04/14 02:10:24;;;;;;;9.60;4.60;;;;;;;2.18;66.84;102228.81;5134772;27;20088;-64
2022/04/14 02:12:50;;;;;;;6.50;3.43;;;;;;;2.18;67.04;102223.56;5116222;27;20143;-63
2022/04/14 02:15:16;;;;;;;4.13;2.50;;;;;;;2.13;66.98;102222.94;5134247;27;20058;-65
2022/04/14 02:17:42;;;;;;;5.30;2.70;;;;;;;2.14;67.30;102222.00;5115704;27;20054;-64
2022/04/14 02:20:08;;;;;;;6.93;2.77;;;;;;;2.14;66.92;102229.88;5134258;27;20253;-64
2022/04/14 02:22:43;;;;;;;3.83;2.77;;;;;;;2.12;67.17;102226.47;5134297;27;20096;-64
2022/04/14 02:25:10;;;;;;;8.47;3.20;;;;;;;1.86;67.26;102187.44;5133855;27;20095;-64
2022/04/14 02:27:36;;;;;;;6.30;4.17;;;;;;;2.03;67.95;102216.41;5133854;27;20276;-63
2022/04/14 02:30:04;;;;;;;5.40;3.23;;;;;;;2.01;67.96;102218.25;5133750;27;20256;-63
2022/04/14 02:32:29;;;;;;;5.23;3.53;;;;;;;1.96;68.32;102222.84;5115461;27;20034;-64
2022/04/14 02:34:55;;;;;;;7.13;3.40;;;;;;;1.92;68.04;102223.94;5133801;27;20292;-64
2022/04/14 02:37:20;;;;;;;8.87;3.67;;;;;;;1.89;68.56;102223.22;5115379;27;20031;-65
2022/04/14 02:39:46;;;;;;;9.93;3.80;;;;;;;1.79;68.71;102233.31;5133920;27;20118;-65
2022/04/14 02:42:12;;;;;;;6.23;3.40;;;;;;;1.71;69.54;102227.53;5133874;27;20035;-64
2022/04/14 02:44:37;;;;;;;5.20;3.50;;;;;;;1.67;70.28;102218.09;5133467;27;20042;-62
2022/04/14 02:47:03;;;;;;;8.03;3.70;;;;;;;1.65;70.19;102220.78;5133736;27;20045;-63
2022/04/14 02:49:28;;;;;;;7.43;3.73;;;;;;;1.68;69.82;102214.53;5133537;27;20095;-66
2022/04/14 02:51:54;;;;;;;5.07;3.23;;;;;;;1.67;69.91;102221.56;5133702;27;20042;-64
2022/04/14 02:54:19;;;;;;;3.43;3.13;;;;;;;1.64;69.82;102218.25;5133246;27;20031;-64
2022/04/14 02:56:45;;;;;;;5.90;3.10;;;;;;;1.58;69.75;102218.53;5133361;27;20486;-63
2022/04/14 02:59:10;;;;;;;5.10;3.07;;;;;;;1.46;70.38;102210.28;5133249;27;20043;-63
2022/04/14 03:01:36;;;;;;;5.73;3.23;;;;;;;1.48;70.46;102224.19;5133598;27;20031;-64
2022/04/14 03:04:01;;;;;;;7.77;3.80;;;;;;;1.47;70.33;102222.50;5133564;27;20118;-63
2022/04/14 03:06:27;;;;;;;9.10;3.43;;;;;;;1.42;70.93;102220.97;5133360;27;20041;-63
2022/04/14 03:08:52;;;;;;;5.93;3.07;;;;;;;1.43;70.67;102218.28;5133266;27;20402;-63
2022/04/14 03:11:18;;;;;;;7.17;3.17;;;;;;;1.24;71.02;102188.53;5133054;27;20027;-65
2022/04/14 03:13:46;;;;;;;6.90;3.67;;;;;;;1.40;70.91;102210.53;5132648;27;20030;-65
2022/04/14 03:16:13;;;;;;;5.18;3.47;;;;;;;1.40;71.40;102207.06;5133230;27;20047;-63
2022/04/14 03:18:39;;;;;;;10.13;3.70;;;;;;;1.42;71.11;102203.44;5132933;27;20459;-64
2022/04/14 03:21:04;;;;;;;6.37;4.00;;;;;;;1.53;70.65;102211.72;5133552;27;20257;-62
2022/04/14 03:23:30;;;;;;;5.93;3.80;;;;;;;1.59;70.88;102201.84;5133131;27;20035;-63
2022/04/14 03:25:55;;;;;;;6.80;3.17;;;;;;;1.66;70.70;102195.38;5133112;27;20525;-64
2022/04/14 03:28:21;;;;;;;8.33;3.87;;;;;;;1.76;70.60;102199.31;5132761;27;20039;-66
2022/04/14 03:30:46;;;;;;;5.43;3.30;;;;;;;1.74;70.08;102172.28;5133435;27;20076;-62
2022/04/14 03:33:12;;;;;;;9.30;3.80;;;;;;;1.94;69.55;102195.81;5132980;27;20035;-63
2022/04/14 03:35:37;;;;;;;7.63;4.00;;;;;;;2.02;69.38;102201.53;5132769;27;20134;-62
2022/04/14 03:38:03;;;;;;;5.87;3.90;;;;;;;2.13;69.15;102199.28;5132224;27;20042;-63
2022/04/14 03:40:28;;;;;;;10.00;4.03;;;;;;;2.18;68.71;102192.03;5132783;28;20034;-66
2022/04/14 03:42:55;;;;;;;10.73;3.57;;;;;;;2.52;68.10;102189.50;5132498;28;20046;-64
2022/04/14 03:45:20;;;;;;;6.40;4.17;;;;;;;3.02;66.12;102184.34;5132758;28;20031;-64
2022/04/14 03:47:46;;;;;;;11.50;4.03;;;;;;;3.47;64.64;102194.25;5132522;28;20275;-63
2022/04/14 03:50:11;;;;;;;9.00;2.97;;;;;;;3.68;63.67;102189.59;5132814;28;20057;-64
2022/04/14 03:52:37;;;;;;;7.80;2.93;;;;;;;3.86;62.94;102190.38;5132654;28;20097;-63
2022/04/14 03:55:03;;;;;;;5.17;3.10;;;;;;;3.91;62.00;102186.56;5132431;28;20027;-64
2022/04/14 03:57:29;;;;;;;8.07;3.97;;;;;;;3.76;61.86;102194.44;5132333;28;20539;-64
2022/04/14 03:59:54;;;;;;;6.13;2.80;;;;;;;3.45;63.00;102189.97;5132376;28;20292;-64
2022/04/14 04:02:20;;;;;;;9.50;2.67;;;;;;;3.18;63.67;102187.88;5131419;28;20058;-63
2022/04/14 04:04:45;;;;;;;7.83;3.30;;;;;;;2.99;64.73;102182.72;5112201;28;20050;-64
2022/04/14 04:07:11;;;;;;;5.50;3.00;;;;;;;2.90;64.65;102183.19;5112015;28;20071;-65
2022/04/14 04:09:38;;;;;;;10.17;3.40;;;;;;;2.87;64.64;102187.75;5111916;28;20486;-71
2022/04/14 04:12:04;;;;;;;6.27;2.37;;;;;;;2.82;64.69;102190.59;5111736;28;20039;-66
2022/04/14 04:14:32;;;;;;;7.60;2.73;;;;;;;2.78;64.51;102187.28;5111663;28;20304;-65
2022/04/14 04:16:58;;;;;;;2.57;2.07;;;;;;;2.91;64.35;102181.41;5093930;28;20284;-70
2022/04/14 04:19:24;;;;;;;5.27;2.93;;;;;;;3.03;63.75;102184.25;5112300;28;20292;-62
2022/04/14 04:21:49;;;;;;;6.90;2.47;;;;;;;3.08;63.42;102176.97;5112369;28;20293;-66
2022/04/14 04:24:15;;;;;;;12.93;2.80;;;;;;;3.13;63.45;102183.78;5112415;28;20054;-68
2022/04/14 04:26:41;;;;;;;9.43;3.00;;;;;;;3.12;63.20;102193.44;5112097;28;20036;-68
2022/04/14 04:29:07;;;;;;;14.37;2.40;;;;;;;3.00;63.20;102194.94;5111775;28;20314;-65
2022/04/14 04:31:32;;;;;;;5.57;3.37;;;;;;;2.83;64.02;102186.19;5112449;28;20031;-68
2022/04/14 04:33:58;;;;;;;9.57;3.00;;;;;;;2.72;63.86;102190.22;5111930;28;20035;-71
2022/04/14 04:36:23;;;;;;;13.53;3.57;;;;;;;2.45;64.53;102165.31;5111744;28;20491;-71
2022/04/14 04:38:49;;;;;;;9.97;3.00;;;;;;;2.41;65.27;102195.31;5115559;28;20038;-66
2022/04/14 04:41:14;;;;;;;11.43;3.20;;;;;;;2.38;65.01;102198.09;5131888;28;20035;-68
2022/04/14 04:43:40;;;;;;;7.53;2.70;;;;;;;2.34;65.43;102186.03;5132158;28;20031;-71
2022/04/14 04:46:07;;;;;;;13.57;3.73;;;;;;;2.39;65.29;102187.50;5132442;28;20091;-69
2022/04/14 04:48:33;;;;;;;6.57;2.83;;;;;;;2.47;65.22;102195.00;5132944;28;20125;-68
2022/04/14 04:50:58;;;;;;;8.93;2.97;;;;;;;2.44;64.94;102176.75;5115910;27;20773;-75
2022/04/14 04:53:30;;;;;;;9.57;2.57;;;;;;;2.58;64.88;102194.47;5118222;27;20091;-71
2022/04/14 04:55:59;;;;;;;6.00;2.80;;;;;;;2.61;65.04;102192.56;5100923;27;20114;-71
2022/04/14 04:58:25;;;;;;;;;;;;;;;2.70;64.82;102194.72;5118431;27;20310;-69
2022/04/14 05:00:54;;;;;;;7.33;3.30;;;;;;;2.71;64.04;102188.53;5136552;27;19966;-70
2022/04/14 05:03:30;;;;;;;12.80;4.03;;;;;;;2.79;64.47;102196.03;5119990;27;20027;-70
2022/04/14 05:05:59;;;;;;;16.53;3.03;;;;;;;2.88;63.84;102184.19;5135665;27;20398;-70
2022/04/14 05:08:25;;;;;;;11.60;3.13;;;;;;;2.98;63.32;102188.06;5117578;27;20409;-71
2022/04/14 05:10:50;;;;;;;10.23;3.87;;;;;;;3.02;63.50;102181.72;5135608;27;20049;-70
2022/04/14 05:13:16;;;;;;;6.90;2.87;;;;;;;3.09;63.26;102180.44;5135518;27;20034;-72
2022/04/14 05:15:43;;;;;;;13.67;3.40;;;;;;;3.10;63.57;102179.53;5116784;27;20055;-70
2022/04/14 05:18:09;;;;;;;8.93;3.00;;;;;;;3.25;63.22;102191.03;5117324;27;20058;-70
2022/04/14 05:20:38;;;;;;;7.13;3.23;;;;;;;3.31;63.41;102188.09;5135056;27;20643;-70
2022/04/14 05:23:07;;;;;;;9.60;4.60;;;;;;;3.43;63.14;102183.00;5135306;27;20176;-71
2022/04/14 05:25:32;;;;;;;;;;;;;;;3.67;63.04;102179.97;5135724;27;20276;-70
2022/04/14 05:27:59;;;;;;;12.63;3.70;;;;;;;3.74;62.48;102171.66;5136438;27;19964;-72
2022/04/14 05:30:25;;;;;;;11.30;3.53;;;;;;;3.90;62.63;102176.94;5118754;27;20264;-71
2022/04/14 05:32:50;;;;;;;38.73;18.77;;;;;;;3.96;62.20;102173.09;5117874;27;20520;-70
2022/04/14 05:35:16;;;;;;;17.67;4.30;;;;;;;3.96;61.94;102171.31;5116791;27;20035;-70
2022/04/14 05:37:42;;;;;;;13.47;3.53;;;;;;;3.76;62.93;102168.97;5135224;27;20023;-70
2022/04/14 05:40:08;;;;;;;11.97;4.10;;;;;;;3.65;63.32;102166.03;5135041;27;20413;-70
2022/04/14 05:42:34;;;;;;;14.40;4.13;;;;;;;3.70;63.63;102158.75;5135039;27;20084;-70
2022/04/14 05:45:00;;;;;;;8.40;3.40;;;;;;;3.74;63.59;102162.91;5116397;27;20264;-71
2022/04/14 05:47:26;;;;;;;9.33;4.13;;;;;;;3.55;63.29;102127.97;5135108;27;20212;-71
2022/04/14 05:49:52;;;;;;;7.13;4.27;;;;;;;3.72;63.21;102154.22;5134834;27;20081;-71
2022/04/14 05:52:18;;;;;;;14.77;5.57;;;;;;;3.82;63.18;102165.97;5116215;27;20505;-70
2022/04/14 05:54:47;;;;;;;15.60;3.77;;;;;;;3.71;63.14;102155.16;5134779;27;20292;-73
2022/04/14 05:57:14;;;;;;;13.02;4.28;;;;;;;3.70;63.41;102148.19;5123190;27;20088;-73
2022/04/14 05:59:40;;;;;;;12.60;4.87;;;;;;;3.45;63.32;102105.69;5113958;28;20093;-69
2022/04/14 06:02:05;;;;;;;10.10;4.03;;;;;;;3.84;62.87;102158.84;5113562;28;20265;-68
2022/04/14 06:04:31;;;;;;;11.10;4.73;;;;;;;3.85;62.73;102160.53;5114149;28;20629;-69
2022/04/14 06:06:56;;;;;;;13.30;3.90;;;;;;;3.92;62.04;102156.63;5111848;28;20512;-74
2022/04/14 06:09:22;;;;;;;10.33;4.03;;;;;;;4.03;62.25;102164.75;5104433;27;20031;-71
2022/04/14 06:11:47;;;;;;;37.57;5.87;;;;;;;4.08;61.60;102155.78;5115431;27;20034;-70
2022/04/14 06:14:18;;;;;;;9.20;3.53;;;;;;;4.16;61.58;102156.19;5113796;28;20093;-72
2022/04/14 06:16:43;;;;;;;16.73;4.20;;;;;;;4.14;61.94;102150.16;5113619;28;20084;-71
2022/04/14 06:19:09;;;;;;;8.87;4.60;;;;;;;4.18;61.70;102149.88;5115076;28;20269;-73
2022/04/14 06:21:34;;;;;;;10.87;5.00;;;;;;;4.12;61.73;102144.97;5113528;28;20058;-72
2022/04/14 06:24:00;;;;;;;13.40;4.27;;;;;;;4.27;61.81;102146.72;5113543;28;20480;-70
2022/04/14 06:26:25;;;;;;;10.93;5.00;;;;;;;4.55;61.12;102147.75;5113675;28;20042;-71
2022/04/14 06:28:51;;;;;;;27.67;5.83;;;;;;;4.78;60.98;102149.03;5113350;28;20503;-69
2022/04/14 06:31:16;;;;;;;14.30;5.50;;;;;;;5.06;59.43;102159.63;5112843;28;20084;-71
2022/04/14 06:33:44;;;;;;;19.20;4.43;;;;;;;5.28;58.93;102152.09;5112278;28;20516;-73
2022/04/14 06:36:10;;;;;;;17.13;5.57;;;;;;;5.52;58.79;102162.94;5113017;28;20035;-69
2022/04/14 06:38:36;;;;;;;21.17;6.70;;;;;;;5.58;58.55;102149.34;5113414;28;20277;-70
2022/04/14 06:41:02;;;;;;;13.50;5.23;;;;;;;5.62;58.49;102154.44;5113142;28;20628;-70
2022/04/14 06:43:28;;;;;;;14.20;4.83;;;;;;;5.61;57.85;102150.94;5097010;28;20039;-69
2022/04/14 06:45:54;;;;;;;13.73;5.00;;;;;;;5.83;57.24;102161.88;5124247;27;20050;-65
2022/04/14 06:48:19;;;;;;;13.13;4.60;;;;;;;5.77;57.51;102148.16;5116272;27;20268;-71
2022/04/14 06:50:45;;;;;;;14.40;4.20;;;;;;;5.75;57.53;102129.75;5133364;27;20110;-68
2022/04/14 06:53:10;;;;;;;20.03;4.57;;;;;;;5.97;56.62;102146.94;5133392;27;20027;-70
2022/04/14 06:55:37;;;;;;;12.67;5.27;;;;;;;5.78;56.98;102137.53;5133479;27;20035;-63
2022/04/14 06:58:03;;;;;;;18.93;5.63;;;;;;;5.78;57.44;102137.53;5133407;27;20532;-73
2022/04/14 07:00:30;;;;;;;24.80;5.23;;;;;;;5.94;57.08;102155.91;5133102;27;20257;-63
2022/04/14 07:02:57;;;;;;;21.27;5.27;;;;;;;6.19;56.76;102139.31;5133005;27;20034;-67
2022/04/14 07:05:23;;;;;;;18.50;6.17;;;;;;;6.37;56.40;102140.75;5133273;27;20357;-67
2022/04/14 07:07:49;;;;;;;20.50;5.73;;;;;;;6.49;55.65;102139.91;5133218;27;20673;-69
2022/04/14 07:10:15;;;;;;;20.20;5.40;;;;;;;6.70;56.01;102142.06;5133132;27;20313;-68
2022/04/14 07:12:44;;;;;;;21.60;6.33;;;;;;;6.88;55.92;102142.59;5132080;27;20067;-70
2022/04/14 07:15:11;;;;;;;14.30;5.27;;;;;;;6.86;55.02;102126.81;5132845;27;20111;-73
2022/04/14 07:17:37;;;;;;;21.10;6.13;;;;;;;7.01;54.63;102144.31;5134225;27;20284;-71
2022/04/14 07:20:03;;;;;;;11.43;5.37;;;;;;;7.03;54.76;102150.38;5116022;27;20042;-70
2022/04/14 07:22:31;;;;;;;24.80;6.17;;;;;;;6.71;54.17;102089.03;5133227;27;20031;-69
2022/04/14 07:24:58;;;;;;;22.13;4.77;;;;;;;6.94;54.40;102139.53;5114559;27;20038;-71
2022/04/14 07:27:23;;;;;;;35.53;7.77;;;;;;;6.84;55.01;102124.28;5132767;27;20039;-69
2022/04/14 07:30:14;;;;;;;23.07;5.77;;;;;;;7.04;54.11;102133.50;5132817;27;20678;-68
2022/04/14 07:32:45;;;;;;;20.97;5.07;;;;;;;7.14;53.77;102118.66;5133229;27;20051;-71
2022/04/14 07:35:15;;;;;;;20.03;5.67;;;;;;;7.09;53.84;102102.25;5115136;28;20114;-70
2022/04/14 07:37:41;;;;;;;21.03;5.30;;;;;;;7.20;53.46;102129.78;5132615;27;20134;-65
2022/04/14 07:40:10;;;;;;;15.43;4.47;;;;;;;7.17;53.86;102122.06;5132500;28;20125;-67
2022/04/14 07:42:38;;;;;;;15.63;4.53;;;;;;;7.23;53.52;102129.56;5132473;28;20046;-69
2022/04/14 07:45:05;;;;;;;14.47;4.20;;;;;;;7.17;53.86;102130.00;5132835;28;20046;-70
2022/04/14 07:47:30;;;;;;;15.33;4.83;;;;;;;7.15;53.75;102117.72;5132813;28;20042;-69
2022/04/14 07:49:56;;;;;;;16.43;4.27;;;;;;;7.12;53.24;102114.44;5132792;28;20035;-71
2022/04/14 07:52:21;;;;;;;16.53;4.00;;;;;;;6.98;53.71;102126.00;5132492;28;20433;-69
2022/04/14 07:54:47;;;;;;;14.57;4.40;;;;;;;7.04;53.86;102117.63;5132269;28;20486;-69
2022/04/14 07:57:12;;;;;;;15.03;4.27;;;;;;;7.12;53.25;102117.94;5132158;28;20043;-71
2022/04/14 07:59:38;;;;;;;15.27;4.90;;;;;;;7.28;52.69;102103.63;5132815;28;20035;-72
2022/04/14 08:02:04;;;;;;;19.30;5.30;;;;;;;7.50;52.19;102090.50;5132727;28;20497;-68
2022/04/14 08:04:32;;;;;;;14.03;4.87;;;;;;;7.69;51.99;102090.03;5133877;28;20035;-71
2022/04/14 08:06:58;;;;;;;15.07;4.47;;;;;;;7.75;51.51;102094.88;5132484;28;20043;-69
2022/04/14 08:09:24;;;;;;;10.37;4.30;;;;;;;7.65;51.37;102083.25;5132339;28;20332;-72
2022/04/14 08:11:50;;;;;;;16.27;3.30;;;;;;;7.68;51.40;102091.00;5114184;28;20031;-72
2022/04/14 08:14:16;;;;;;;16.37;4.70;;;;;;;7.66;51.36;102084.94;5132604;28;20055;-70
2022/04/14 08:16:42;;;;;;;14.00;3.33;;;;;;;7.82;50.97;102090.84;5132370;28;20047;-75
2022/04/14 08:19:08;;;;;;;16.87;3.87;;;;;;;7.84;50.71;102078.31;5133392;28;20046;-71
2022/04/14 08:21:34;;;;;;;14.50;4.90;;;;;;;7.91;50.14;102078.69;5132640;28;20031;-71
2022/04/14 08:24:01;;;;;;;22.90;4.80;;;;;;;8.03;50.23;102062.72;5133469;27;20031;-67
2022/04/14 08:26:26;;;;;;;18.83;3.83;;;;;;;8.23;49.98;102063.88;5136371;27;20046;-68
2022/04/14 08:28:55;;;;;;;19.27;3.63;;;;;;;8.49;49.52;102061.94;5136750;27;20039;-68
2022/04/14 08:31:21;;;;;;;20.23;4.45;;;;;;;8.67;49.37;102072.94;5136412;27;20055;-70
2022/04/14 08:33:49;;;;;;;20.90;4.20;;;;;;;8.63;48.63;102074.13;5135499;27;20409;-67
2022/04/14 08:36:19;;;;;;;16.30;4.57;;;;;;;8.53;48.88;102075.81;5118141;27;20038;-66
2022/04/14 08:38:47;;;;;;;16.63;4.30;;;;;;;8.45;49.11;102075.56;5097374;28;20032;-69
2022/04/14 08:41:14;;;;;;;11.90;5.00;;;;;;;8.37;48.85;102076.97;5121018;27;20063;-73
2022/04/14 08:43:58;;;;;;;16.50;4.37;;;;;;;8.24;49.20;102080.66;5115485;28;20035;-68
2022/04/14 08:46:25;;;;;;;19.80;4.67;;;;;;;8.14;49.24;102072.53;5115458;28;20064;-71
2022/04/14 08:48:51;;;;;;;12.37;4.33;;;;;;;8.28;49.30;102075.00;5099223;28;20062;-66
2022/04/14 08:51:20;;;;;;;12.17;4.20;;;;;;;8.30;48.51;102073.06;5115730;28;20024;-72
2022/04/14 08:53:47;;;;;;;19.52;4.05;;;;;;;8.42;48.18;102074.00;5097141;28;20447;-71
2022/04/14 08:56:13;;;;;;;19.13;3.97;;;;;;;8.53;48.12;102070.50;5120426;27;20039;-67
2022/04/14 08:58:42;;;;;;;10.27;3.87;;;;;;;8.49;46.88;102035.38;5125803;27;20138;-68
2022/04/14 09:01:08;;;;;;;15.57;4.10;;;;;;;8.83;46.67;102070.78;5131050;27;20031;-67
2022/04/14 09:03:34;;;;;;;11.13;3.90;;;;;;;8.93;47.05;102063.78;5136338;27;20086;-70
2022/04/14 09:06:00;;;;;;;10.90;3.87;;;;;;;9.06;46.72;102074.31;5135681;27;20031;-71
2022/04/14 09:08:26;;;;;;;16.23;3.73;;;;;;;9.04;46.59;102067.44;5135277;27;20069;-73
2022/04/14 09:10:52;;;;;;;16.77;4.67;;;;;;;8.96;46.66;102052.06;5099907;27;20058;-69
2022/04/14 09:13:20;;;;;;;16.87;3.57;;;;;;;9.05;46.00;102062.00;5135415;27;20035;-70
2022/04/14 09:15:48;;;;;;;9.48;2.65;;;;;;;8.62;46.04;102024.66;5135178;27;20058;-70
2022/04/14 09:18:14;;;;;;;13.47;3.40;;;;;;;8.79;46.35;102061.38;5135911;27;20053;-70
2022/04/14 09:20:42;;;;;;;28.77;4.50;;;;;;;8.94;45.97;102049.53;5138638;27;20497;-77
2022/04/14 09:23:27;;;;;;;13.63;3.20;;;;;;;9.17;45.53;102046.88;5135284;27;20101;-73
2022/04/14 09:26:02;;;;;;;15.10;3.83;;;;;;;9.31;45.78;102062.59;5135299;27;20121;-68
2022/04/14 09:28:28;;;;;;;9.40;3.40;;;;;;;9.25;45.67;102047.09;5135224;27;20476;-74
2022/04/14 09:31:09;;;;;;;14.67;3.20;;;;;;;9.42;44.70;102038.63;5135400;27;20127;-74
2022/04/14 09:34:00;;;;;;;14.60;3.63;;;;;;;9.68;44.20;102049.81;5136998;27;20128;-68
2022/04/14 09:36:27;;;;;;;9.33;3.10;;;;;;;9.75;44.79;102050.16;5134856;27;20081;-69
2022/04/14 09:39:07;;;;;;;8.80;3.03;;;;;;;9.76;44.21;102046.53;5135147;27;20035;-70
2022/04/14 09:41:37;;;;;;;15.07;3.33;;;;;;;9.73;44.76;102046.78;5135124;27;20043;-66
2022/04/14 09:44:05;;;;;;;8.57;2.70;;;;;;;9.75;43.61;102036.84;5135021;27;20034;-67
2022/04/14 09:46:32;;;;;;;14.45;3.20;;;;;;;9.72;43.60;102026.47;5139637;27;20466;-70
2022/04/14 09:49:00;;;;;;;13.53;3.50;;;;;;;9.63;43.63;102036.91;5140539;27;20031;-68
2022/04/14 09:51:26;;;;;;;8.65;3.30;;;;;;;9.62;43.80;102040.53;5142275;27;20038;-67
2022/04/14 09:54:05;;;;;;;11.50;2.57;;;;;;;9.54;42.43;102040.31;5136654;27;20039;-74
2022/04/14 09:56:38;;;;;;;;;;;;;;;9.53;43.34;102046.56;5141064;27;20057;-68
2022/04/14 09:59:08;;;;;;;6.20;3.00;;;;;;;9.50;43.93;102036.19;5134654;27;20019;-69
2022/04/14 10:01:34;;;;;;;10.53;2.80;;;;;;;9.59;43.42;102035.47;5134441;27;20035;-71
2022/04/14 10:04:01;;;;;;;4.87;2.40;;;;;;;9.72;42.48;102045.94;5135905;27;20032;-68
2022/04/14 10:06:26;;;;;;;8.73;2.97;;;;;;;9.69;42.51;102051.50;5135790;27;20039;-68
2022/04/14 10:08:52;;;;;;;8.67;2.87;;;;;;;9.46;42.43;102050.69;5134539;27;20103;-68
2022/04/14 10:11:29;;;;;;;14.20;4.03;;;;;;;9.15;43.26;102033.72;5116033;27;20042;-71
2022/04/14 10:14:12;;;;;;;13.30;3.47;;;;;;;9.16;43.00;102037.22;5134482;27;20046;-68
2022/04/14 10:16:40;;;;;;;16.90;7.10;;;;;;;9.25;42.78;102049.75;5133893;27;20509;-73
2022/04/14 10:19:09;;;;;;;10.77;2.73;;;;;;;9.26;42.94;102024.91;5134799;27;20034;-71
2022/04/14 10:21:36;;;;;;;5.80;2.30;;;;;;;9.43;42.43;102029.69;5134967;27;20087;-70
2022/04/14 10:24:03;;;;;;;6.30;2.20;;;;;;;9.44;40.81;102018.06;5134331;27;20043;-75
2022/04/14 10:26:30;;;;;;;11.80;2.30;;;;;;;9.41;41.09;102007.69;5116004;27;20268;-74
2022/04/14 10:28:56;;;;;;;12.93;2.97;;;;;;;9.53;40.20;102027.97;5134110;27;20035;-70
2022/04/14 10:31:21;;;;;;;10.97;2.23;;;;;;;9.59;40.10;102019.50;5133734;27;20547;-70
2022/04/14 10:33:48;;;;;;;10.43;3.07;;;;;;;9.74;39.94;102027.19;5133980;27;20935;-73
2022/04/14 10:36:15;;;;;;;9.00;2.70;;;;;;;9.81;39.69;102028.34;5134790;27;20050;-70
2022/04/14 10:38:44;;;;;;;9.43;3.10;;;;;;;9.88;39.62;102018.91;5133824;27;20039;-74
2022/04/14 10:41:21;;;;;;;8.97;3.37;;;;;;;9.93;39.44;102030.03;5115694;27;20478;-69
2022/04/14 10:43:47;;;;;;;10.67;3.93;;;;;;;10.07;39.08;102031.50;5133923;27;20067;-71
2022/04/14 10:46:17;;;;;;;14.17;2.23;;;;;;;10.10;38.71;102016.13;5132033;27;20504;-71
2022/04/14 10:48:44;;;;;;;8.03;2.40;;;;;;;10.39;38.71;102026.16;5133628;27;20038;-70
2022/04/14 10:51:27;;;;;;;16.13;2.87;;;;;;;10.53;38.21;102015.19;5134447;27;20049;-70
2022/04/14 10:54:05;;;;;;;5.63;1.80;;;;;;;10.16;37.67;102014.78;5133300;27;20031;-69
2022/04/14 10:56:41;;;;;;;6.00;2.70;;;;;;;10.11;38.69;102015.16;5132973;27;20490;-65
2022/04/14 10:59:18;;;;;;;6.43;2.40;;;;;;;10.09;38.84;102008.28;5133606;27;20074;-64
2022/04/14 11:01:47;;;;;;;4.90;2.20;;;;;;;10.01;39.43;102008.06;5133200;27;20485;-65
2022/04/14 11:04:30;;;;;;;5.25;2.10;;;;;;;10.03;38.52;102006.13;5133626;27;20035;-66
2022/04/14 11:06:59;;;;;;;8.17;2.17;;;;;;;10.05;38.63;102005.03;5133311;27;20039;-68
2022/04/14 11:09:42;;;;;;;14.95;2.28;;;;;;;10.12;39.17;101990.25;5133242;27;20062;-65
2022/04/14 11:12:22;;;;;;;8.73;2.27;;;;;;;10.26;38.46;101986.44;5133277;27;20047;-65
2022/04/14 11:14:57;;;;;;;8.43;2.40;;;;;;;10.24;38.24;101972.41;5133025;27;20063;-70
2022/04/14 11:17:30;;;;;;;10.53;2.70;;;;;;;10.37;38.41;101982.84;5132981;27;20058;-71
2022/04/14 11:23:17;;;;;;;4.30;1.67;;;;;;;10.15;37.42;101990.00;5099744;27;20050;-68
2022/04/14 11:25:46;;;;;;;9.60;2.20;;;;;;;9.90;37.75;101979.72;5133267;27;20130;-68
2022/04/14 11:28:25;;;;;;;10.85;3.22;;;;;;;9.88;38.21;101984.31;5133266;27;20494;-66
2022/04/14 11:30:56;;;;;;;9.50;2.33;;;;;;;9.52;37.99;101980.22;5114588;28;20494;-72
2022/04/14 11:33:21;;;;;;;4.97;2.70;;;;;;;9.44;39.13;101978.19;5132838;27;20042;-70